sensor_id;sensor_type;location;lat;lon;timestamp;pressure;altitude;pressure_sealevel;temperature;humidity
75938;BME280;64615;32.062;34.834;2023-08-21T00:01:01;100320.41;;;27.98;60.05
75938;BME280;64615;32.062;34.834;2023-08-21T00:03:26;100326.41;;;28.00;60.06
75938;BME280;64615;32.062;34.834;2023-08-21T00:05:52;100324.78;;;27.99;60.02
75938;BME280;64615;32.062;34.834;2023-08-21T00:08:18;100321.72;;;28.00;59.92
75938;BME280;64615;32.062;34.834;2023-08-21T00:10:43;100317.38;;;27.99;59.92
75938;BME280;64615;32.062;34.834;2023-08-21T00:13:09;100326.69;;;27.98;59.67
75938;BME280;64615;32.062;34.834;2023-08-21T00:15:36;100323.66;;;28.00;59.86
75938;BME280;64615;32.062;34.834;2023-08-21T00:18:02;100317.38;;;27.99;59.80
75938;BME280;64615;32.062;34.834;2023-08-21T00:20:28;100315.47;;;28.00;59.89
75938;BME280;64615;32.062;34.834;2023-08-21T00:22:54;100315.47;;;28.00;59.91
75938;BME280;64615;32.062;34.834;2023-08-21T00:25:21;100311.59;;;28.01;59.74
75938;BME280;64615;32.062;34.834;2023-08-21T00:27:46;100311.91;;;27.99;59.94
75938;BME280;64615;32.062;34.834;2023-08-21T00:30:12;100316.25;;;28.00;59.78
75938;BME280;64615;32.062;34.834;2023-08-21T00:32:40;100308.84;;;28.01;59.93
75938;BME280;64615;32.062;34.834;2023-08-21T00:35:06;100317.56;;;28.03;59.91
75938;BME280;64615;32.062;34.834;2023-08-21T00:37:32;100307.44;;;28.03;59.73
75938;BME280;64615;32.062;34.834;2023-08-21T00:39:57;100306.00;;;28.06;59.69
75938;BME280;64615;32.062;34.834;2023-08-21T00:42:23;100306.53;;;28.08;59.92
75938;BME280;64615;32.062;34.834;2023-08-21T00:44:49;100307.63;;;28.07;59.80
75938;BME280;64615;32.062;34.834;2023-08-21T00:47:15;100315.03;;;28.06;59.88
75938;BME280;64615;32.062;34.834;2023-08-21T00:49:40;100310.69;;;28.05;59.79
75938;BME280;64615;32.062;34.834;2023-08-21T00:52:11;100306.34;;;28.04;59.88
75938;BME280;64615;32.062;34.834;2023-08-21T00:54:37;100314.31;;;28.01;60.03
75938;BME280;64615;32.062;34.834;2023-08-21T00:57:03;100303.19;;;27.97;59.99
75938;BME280;64615;32.062;34.834;2023-08-21T00:59:30;100310.88;;;27.95;60.01
75938;BME280;64615;32.062;34.834;2023-08-21T01:01:56;100303.00;;;27.94;60.10
75938;BME280;64615;32.062;34.834;2023-08-21T01:04:21;100310.69;;;27.92;60.18
75938;BME280;64615;32.062;34.834;2023-08-21T01:06:49;100307.94;;;27.92;60.16
75938;BME280;64615;32.062;34.834;2023-08-21T01:09:29;100304.09;;;27.93;60.26
75938;BME280;64615;32.062;34.834;2023-08-21T01:14:54;100314.44;;;27.96;60.20
75938;BME280;64615;32.062;34.834;2023-08-21T01:17:23;100312.22;;;27.98;60.07
75938;BME280;64615;32.062;34.834;2023-08-21T01:19:50;100317.69;;;27.98;60.13
75938;BME280;64615;32.062;34.834;2023-08-21T01:22:15;100315.75;;;27.98;59.99
75938;BME280;64615;32.062;34.834;2023-08-21T01:24:41;100310.00;;;28.00;60.36
75938;BME280;64615;32.062;34.834;2023-08-21T01:27:08;100310.47;;;28.02;59.93
75938;BME280;64615;32.062;34.834;2023-08-21T01:29:35;100304.28;;;27.96;59.93
75938;BME280;64615;32.062;34.834;2023-08-21T01:32:14;100313.59;;;27.95;60.15
75938;BME280;64615;32.062;34.834;2023-08-21T01:34:45;100312.00;;;27.94;60.04
75938;BME280;64615;32.062;34.834;2023-08-21T01:37:11;100308.75;;;27.92;60.16
75938;BME280;64615;32.062;34.834;2023-08-21T01:39:37;100314.75;;;27.94;60.04
75938;BME280;64615;32.062;34.834;2023-08-21T01:42:03;100309.56;;;27.93;60.28
75938;BME280;64615;32.062;34.834;2023-08-21T01:44:29;100312.31;;;27.93;60.11
75938;BME280;64615;32.062;34.834;2023-08-21T01:46:55;100311.50;;;27.92;60.21
75938;BME280;64615;32.062;34.834;2023-08-21T01:49:20;100310.88;;;27.95;60.16
75938;BME280;64615;32.062;34.834;2023-08-21T01:51:46;100313.59;;;27.95;60.27
75938;BME280;64615;32.062;34.834;2023-08-21T01:54:12;100317.97;;;27.96;60.01
75938;BME280;64615;32.062;34.834;2023-08-21T01:56:38;100316.88;;;27.97;60.24
75938;BME280;64615;32.062;34.834;2023-08-21T01:59:04;100307.53;;;27.98;59.96
75938;BME280;64615;32.062;34.834;2023-08-21T02:01:31;100313.03;;;27.98;60.09
75938;BME280;64615;32.062;34.834;2023-08-21T02:03:57;100315.13;;;28.01;59.83
75938;BME280;64615;32.062;34.834;2023-08-21T02:06:22;100316.25;;;28.00;59.88
75938;BME280;64615;32.062;34.834;2023-08-21T02:08:49;100313.03;;;27.98;60.17
75938;BME280;64615;32.062;34.834;2023-08-21T02:11:14;100312.00;;;27.94;60.09
75938;BME280;64615;32.062;34.834;2023-08-21T02:13:40;100314.75;;;27.94;60.36
75938;BME280;64615;32.062;34.834;2023-08-21T02:16:06;100321.31;;;27.93;60.03
75938;BME280;64615;32.062;34.834;2023-08-21T02:18:31;100323.53;;;27.91;60.08
75938;BME280;64615;32.062;34.834;2023-08-21T02:20:57;100312.59;;;27.91;60.32
75938;BME280;64615;32.062;34.834;2023-08-21T02:23:22;100312.13;;;27.89;60.32
75938;BME280;64615;32.062;34.834;2023-08-21T02:25:49;100317.88;;;27.88;60.31
75938;BME280;64615;32.062;34.834;2023-08-21T02:28:15;100312.94;;;27.90;60.24
75938;BME280;64615;32.062;34.834;2023-08-21T02:30:41;100314.22;;;27.92;60.25
75938;BME280;64615;32.062;34.834;2023-08-21T02:33:07;100313.94;;;27.94;60.21
75938;BME280;64615;32.062;34.834;2023-08-21T02:35:32;100318.28;;;27.95;60.16
75938;BME280;64615;32.062;34.834;2023-08-21T02:37:58;100312.50;;;27.96;59.89
75938;BME280;64615;32.062;34.834;2023-08-21T02:40:24;100320.72;;;27.96;59.95
75938;BME280;64615;32.062;34.834;2023-08-21T02:42:49;100309.47;;;27.98;60.00
75938;BME280;64615;32.062;34.834;2023-08-21T02:45:15;100307.25;;;28.00;60.00
75938;BME280;64615;32.062;34.834;2023-08-21T02:47:41;100313.22;;;28.02;59.95
75938;BME280;64615;32.062;34.834;2023-08-21T02:50:08;100313.50;;;28.00;59.92
75938;BME280;64615;32.062;34.834;2023-08-21T02:52:35;100317.69;;;27.98;59.84
75938;BME280;64615;32.062;34.834;2023-08-21T02:55:01;100316.06;;;27.97;60.02
75938;BME280;64615;32.062;34.834;2023-08-21T02:57:27;100324.06;;;27.93;60.39
75938;BME280;64615;32.062;34.834;2023-08-21T02:59:53;100327.09;;;27.92;60.26
75938;BME280;64615;32.062;34.834;2023-08-21T03:02:19;100327.38;;;27.90;60.23
75938;BME280;64615;32.062;34.834;2023-08-21T03:04:45;100330.13;;;27.90;60.12
75938;BME280;64615;32.062;34.834;2023-08-21T03:07:11;100323.06;;;27.89;60.22
75938;BME280;64615;32.062;34.834;2023-08-21T03:09:37;100328.00;;;27.87;60.35
75938;BME280;64615;32.062;34.834;2023-08-21T03:12:03;100335.09;;;27.88;60.32
75938;BME280;64615;32.062;34.834;2023-08-21T03:14:29;100335.59;;;27.90;60.23
75938;BME280;64615;32.062;34.834;2023-08-21T03:16:55;100343.22;;;27.93;60.10
75938;BME280;64615;32.062;34.834;2023-08-21T03:19:21;100337.44;;;27.95;60.01
75938;BME280;64615;32.062;34.834;2023-08-21T03:21:46;100331.66;;;27.96;60.00
75938;BME280;64615;32.062;34.834;2023-08-21T03:24:12;100327.28;;;27.95;59.86
75938;BME280;64615;32.062;34.834;2023-08-21T03:26:37;100336.00;;;27.97;59.91
75938;BME280;64615;32.062;34.834;2023-08-21T03:29:03;100336.84;;;27.98;59.92
75938;BME280;64615;32.062;34.834;2023-08-21T03:31:29;100335.72;;;27.99;59.88
75938;BME280;64615;32.062;34.834;2023-08-21T03:33:55;100344.75;;;27.99;59.89
75938;BME280;64615;32.062;34.834;2023-08-21T03:36:22;100344.84;;;27.94;59.83
75938;BME280;64615;32.062;34.834;2023-08-21T03:38:57;100354.16;;;27.93;59.88
75938;BME280;64615;32.062;34.834;2023-08-21T03:41:22;100353.53;;;27.96;59.90
75938;BME280;64615;32.062;34.834;2023-08-21T03:43:48;100345.03;;;27.98;59.88
75938;BME280;64615;32.062;34.834;2023-08-21T03:46:13;100339.56;;;27.98;59.87
75938;BME280;64615;32.062;34.834;2023-08-21T03:48:39;100343.94;;;27.99;59.96
75938;BME280;64615;32.062;34.834;2023-08-21T03:51:04;100343.59;;;28.00;59.76
75938;BME280;64615;32.062;34.834;2023-08-21T03:53:30;100343.94;;;27.99;59.64
75938;BME280;64615;32.062;34.834;2023-08-21T03:55:56;100342.31;;;27.98;59.93
75938;BME280;64615;32.062;34.834;2023-08-21T03:58:21;100344.03;;;27.94;59.81
75938;BME280;64615;32.062;34.834;2023-08-21T04:00:47;100339.97;;;27.91;59.95
75938;BME280;64615;32.062;34.834;2023-08-21T04:03:12;100338.03;;;27.92;60.13
75938;BME280;64615;32.062;34.834;2023-08-21T04:05:38;100337.22;;;27.91;60.15
75938;BME280;64615;32.062;34.834;2023-08-21T04:08:04;100338.84;;;27.92;60.05
75938;BME280;64615;32.062;34.834;2023-08-21T04:10:30;100343.22;;;27.93;60.01
75938;BME280;64615;32.062;34.834;2023-08-21T04:12:56;100345.94;;;27.93;60.10
75938;BME280;64615;32.062;34.834;2023-08-21T04:15:21;100344.03;;;27.94;59.92
75938;BME280;64615;32.062;34.834;2023-08-21T04:17:47;100343.22;;;27.93;60.27
75938;BME280;64615;32.062;34.834;2023-08-21T04:20:12;100335.50;;;27.95;60.70
75938;BME280;64615;32.062;34.834;2023-08-21T04:22:38;100337.66;;;27.98;60.77
75938;BME280;64615;32.062;34.834;2023-08-21T04:25:04;100336.00;;;27.97;60.66
75938;BME280;64615;32.062;34.834;2023-08-21T04:27:30;100332.97;;;27.99;60.53
75938;BME280;64615;32.062;34.834;2023-08-21T04:29:55;100330.25;;;27.99;60.61
75938;BME280;64615;32.062;34.834;2023-08-21T04:32:21;100336.53;;;27.99;60.22
75938;BME280;64615;32.062;34.834;2023-08-21T04:34:47;100329.16;;;28.00;60.42
75938;BME280;64615;32.062;34.834;2023-08-21T04:37:12;100337.34;;;28.00;60.57
75938;BME280;64615;32.062;34.834;2023-08-21T04:39:38;100338.94;;;28.01;60.75
75938;BME280;64615;32.062;34.834;2023-08-21T04:42:04;100338.13;;;28.00;60.31
75938;BME280;64615;32.062;34.834;2023-08-21T04:44:30;100337.03;;;28.01;60.49
75938;BME280;64615;32.062;34.834;2023-08-21T04:46:56;100341.38;;;28.02;60.50
75938;BME280;64615;32.062;34.834;2023-08-21T04:49:21;100340.28;;;28.03;60.51
75938;BME280;64615;32.062;34.834;2023-08-21T04:51:47;100332.06;;;28.03;60.66
75938;BME280;64615;32.062;34.834;2023-08-21T04:54:13;100331.78;;;28.05;60.39
75938;BME280;64615;32.062;34.834;2023-08-21T04:56:38;100338.06;;;28.05;60.62
75938;BME280;64615;32.062;34.834;2023-08-21T04:59:04;100336.44;;;28.04;60.29
75938;BME280;64615;32.062;34.834;2023-08-21T05:01:29;100338.06;;;28.05;60.39
75938;BME280;64615;32.062;34.834;2023-08-21T05:03:55;100338.84;;;28.06;60.33
75938;BME280;64615;32.062;34.834;2023-08-21T05:06:21;100345.13;;;28.06;60.35
75938;BME280;64615;32.062;34.834;2023-08-21T05:08:46;100339.38;;;28.08;60.11
75938;BME280;64615;32.062;34.834;2023-08-21T05:11:12;100341.00;;;28.09;60.08
75938;BME280;64615;32.062;34.834;2023-08-21T05:13:37;100346.16;;;28.10;59.95
75938;BME280;64615;32.062;34.834;2023-08-21T05:16:03;100347.75;;;28.11;60.18
75938;BME280;64615;32.062;34.834;2023-08-21T05:18:29;100342.03;;;28.13;60.13
75938;BME280;64615;32.062;34.834;2023-08-21T05:20:55;100344.47;;;28.14;60.00
75938;BME280;64615;32.062;34.834;2023-08-21T05:23:21;100346.59;;;28.17;59.91
75938;BME280;64615;32.062;34.834;2023-08-21T05:25:48;100350.66;;;28.20;59.89
75938;BME280;64615;32.062;34.834;2023-08-21T05:28:14;100347.28;;;28.23;59.92
75938;BME280;64615;32.062;34.834;2023-08-21T05:30:40;100358.75;;;28.25;59.97
75938;BME280;64615;32.062;34.834;2023-08-21T05:33:05;100349.13;;;28.28;59.91
75938;BME280;64615;32.062;34.834;2023-08-21T05:35:35;100345.25;;;28.29;59.75
75938;BME280;64615;32.062;34.834;2023-08-21T05:38:03;100351.75;;;28.33;59.78
75938;BME280;64615;32.062;34.834;2023-08-21T05:40:29;100345.16;;;28.34;59.97
75938;BME280;64615;32.062;34.834;2023-08-21T05:42:55;100343.41;;;28.38;59.75
75938;BME280;64615;32.062;34.834;2023-08-21T05:45:20;100349.13;;;28.41;59.40
75938;BME280;64615;32.062;34.834;2023-08-21T05:47:46;100350.94;;;28.46;59.15
75938;BME280;64615;32.062;34.834;2023-08-21T05:50:12;100354.97;;;28.48;59.28
75938;BME280;64615;32.062;34.834;2023-08-21T05:52:37;100351.13;;;28.49;59.11
75938;BME280;64615;32.062;34.834;2023-08-21T05:55:04;100352.75;;;28.50;58.97
75938;BME280;64615;32.062;34.834;2023-08-21T05:57:30;100356.00;;;28.52;58.88
75938;BME280;64615;32.062;34.834;2023-08-21T05:59:55;100346.66;;;28.53;59.17
75938;BME280;64615;32.062;34.834;2023-08-21T06:02:21;100361.97;;;28.54;59.22
75938;BME280;64615;32.062;34.834;2023-08-21T06:04:47;100347.34;;;28.59;58.98
75938;BME280;64615;32.062;34.834;2023-08-21T06:07:12;100348.44;;;28.58;58.81
75938;BME280;64615;32.062;34.834;2023-08-21T06:09:38;100352.00;;;28.58;59.08
75938;BME280;64615;32.062;34.834;2023-08-21T06:12:04;100356.38;;;28.59;59.08
75938;BME280;64615;32.062;34.834;2023-08-21T06:14:29;100356.38;;;28.59;59.12
75938;BME280;64615;32.062;34.834;2023-08-21T06:17:02;100355.25;;;28.60;58.93
75938;BME280;64615;32.062;34.834;2023-08-21T06:19:28;100363.19;;;28.62;58.87
75938;BME280;64615;32.062;34.834;2023-08-21T06:21:57;100364.78;;;28.63;58.83
75938;BME280;64615;32.062;34.834;2023-08-21T06:24:23;100364.78;;;28.63;58.80
75938;BME280;64615;32.062;34.834;2023-08-21T06:26:51;100359.31;;;28.63;58.75
75938;BME280;64615;32.062;34.834;2023-08-21T06:29:17;100353.81;;;28.63;58.74
75938;BME280;64615;32.062;34.834;2023-08-21T06:31:44;100363.66;;;28.64;58.66
75938;BME280;64615;32.062;34.834;2023-08-21T06:34:09;100362.56;;;28.65;58.55
75938;BME280;64615;32.062;34.834;2023-08-21T06:36:35;100362.25;;;28.67;58.71
75938;BME280;64615;32.062;34.834;2023-08-21T06:39:00;100361.75;;;28.64;58.46
75938;BME280;64615;32.062;34.834;2023-08-21T06:41:26;100367.72;;;28.67;58.52
75938;BME280;64615;32.062;34.834;2023-08-21T06:43:52;100364.19;;;28.66;58.92
75938;BME280;64615;32.062;34.834;2023-08-21T06:46:18;100371.59;;;28.65;58.81
75938;BME280;64615;32.062;34.834;2023-08-21T06:48:43;100361.44;;;28.66;58.76
75938;BME280;64615;32.062;34.834;2023-08-21T06:51:10;100366.91;;;28.66;58.81
75938;BME280;64615;32.062;34.834;2023-08-21T06:53:35;100363.88;;;28.68;58.51
75938;BME280;64615;32.062;34.834;2023-08-21T06:56:01;100359.69;;;28.70;58.38
75938;BME280;64615;32.062;34.834;2023-08-21T06:58:27;100364.06;;;28.71;58.42
75938;BME280;64615;32.062;34.834;2023-08-21T07:00:56;100366.00;;;28.71;58.64
75938;BME280;64615;32.062;34.834;2023-08-21T07:03:22;100358.59;;;28.71;58.21
75938;BME280;64615;32.062;34.834;2023-08-21T07:05:59;100361.88;;;28.73;58.03
75938;BME280;64615;32.062;34.834;2023-08-21T07:08:25;100368.47;;;28.72;58.31
75938;BME280;64615;32.062;34.834;2023-08-21T07:10:51;100361.31;;;28.71;58.33
75938;BME280;64615;32.062;34.834;2023-08-21T07:13:17;100360.44;;;28.76;58.23
75938;BME280;64615;32.062;34.834;2023-08-21T07:15:43;100361.88;;;28.73;58.13
75938;BME280;64615;32.062;34.834;2023-08-21T07:18:09;100361.53;;;28.75;58.21
75938;BME280;64615;32.062;34.834;2023-08-21T07:20:34;100361.88;;;28.73;58.69
75938;BME280;64615;32.062;34.834;2023-08-21T07:23:00;100358.31;;;28.73;58.42
75938;BME280;64615;32.062;34.834;2023-08-21T07:25:26;100365.72;;;28.72;58.57
75938;BME280;64615;32.062;34.834;2023-08-21T07:27:54;100364.28;;;28.75;58.27
75938;BME280;64615;32.062;34.834;2023-08-21T07:30:20;100363.78;;;28.73;57.97
75938;BME280;64615;32.062;34.834;2023-08-21T07:32:48;100365.91;;;28.76;58.13
75938;BME280;64615;32.062;34.834;2023-08-21T07:35:14;100366.72;;;28.76;58.09
75938;BME280;64615;32.062;34.834;2023-08-21T07:37:39;100367.53;;;28.77;58.05
75938;BME280;64615;32.062;34.834;2023-08-21T07:40:08;100373.50;;;28.79;58.09
75938;BME280;64615;32.062;34.834;2023-08-21T07:42:34;100381.22;;;28.77;58.13
75938;BME280;64615;32.062;34.834;2023-08-21T07:44:59;100367.53;;;28.77;57.87
75938;BME280;64615;32.062;34.834;2023-08-21T07:47:27;100371.09;;;28.77;57.83
75938;BME280;64615;32.062;34.834;2023-08-21T07:49:53;100373.81;;;28.77;58.06
75938;BME280;64615;32.062;34.834;2023-08-21T07:52:19;100370.56;;;28.75;58.15
75938;BME280;64615;32.062;34.834;2023-08-21T07:54:45;100378.78;;;28.75;58.36
75938;BME280;64615;32.062;34.834;2023-08-21T07:57:11;100359.91;;;28.74;58.05
75938;BME280;64615;32.062;34.834;2023-08-21T07:59:37;100361.88;;;28.73;58.20
75938;BME280;64615;32.062;34.834;2023-08-21T08:02:02;100373.59;;;28.74;58.22
75938;BME280;64615;32.062;34.834;2023-08-21T08:04:29;100365.91;;;28.76;58.05
75938;BME280;64615;32.062;34.834;2023-08-21T08:06:55;100358.81;;;28.75;58.22
75938;BME280;64615;32.062;34.834;2023-08-21T08:09:20;100371.19;;;28.72;58.10
75938;BME280;64615;32.062;34.834;2023-08-21T08:11:46;100369.75;;;28.75;57.98
75938;BME280;64615;32.062;34.834;2023-08-21T08:14:12;100373.59;;;28.74;58.40
75938;BME280;64615;32.062;34.834;2023-08-21T08:16:37;100372.00;;;28.73;58.27
75938;BME280;64615;32.062;34.834;2023-08-21T08:19:04;100361.88;;;28.73;58.16
75938;BME280;64615;32.062;34.834;2023-08-21T08:21:30;100368.47;;;28.72;58.33
75938;BME280;64615;32.062;34.834;2023-08-21T08:23:56;100361.06;;;28.73;58.18
75938;BME280;64615;32.062;34.834;2023-08-21T08:26:22;100358.59;;;28.71;58.10
75938;BME280;64615;32.062;34.834;2023-08-21T08:28:48;100360.25;;;28.72;58.59
75938;BME280;64615;32.062;34.834;2023-08-21T08:31:18;100359.22;;;28.68;58.34
75938;BME280;64615;32.062;34.834;2023-08-21T08:33:43;100354.22;;;28.70;58.23
75938;BME280;64615;32.062;34.834;2023-08-21T08:36:09;100363.56;;;28.69;58.52
75938;BME280;64615;32.062;34.834;2023-08-21T08:38:35;100363.88;;;28.68;58.51
75938;BME280;64615;32.062;34.834;2023-08-21T08:41:02;100359.81;;;28.65;58.39
75938;BME280;64615;32.062;34.834;2023-08-21T08:43:28;100365.81;;;28.67;58.75
75938;BME280;64615;32.062;34.834;2023-08-21T08:45:56;100360.00;;;28.69;58.22
75938;BME280;64615;32.062;34.834;2023-08-21T08:48:23;100364.47;;;28.64;58.79
75938;BME280;64615;32.062;34.834;2023-08-21T08:50:50;100358.19;;;28.64;58.71
75938;BME280;64615;32.062;34.834;2023-08-21T08:53:17;100359.31;;;28.63;58.61
75938;BME280;64615;32.062;34.834;2023-08-21T08:55:44;100353.81;;;28.63;58.63
75938;BME280;64615;32.062;34.834;2023-08-21T08:58:10;100353.03;;;28.62;58.73
75938;BME280;64615;32.062;34.834;2023-08-21T09:00:36;100354.34;;;28.65;58.32
75938;BME280;64615;32.062;34.834;2023-08-21T09:03:02;100341.28;;;28.62;58.72
75938;BME280;64615;32.062;34.834;2023-08-21T09:05:28;100346.94;;;28.65;58.19
75938;BME280;64615;32.062;34.834;2023-08-21T09:08:12;100355.44;;;28.64;58.54
75938;BME280;64615;32.062;34.834;2023-08-21T09:10:39;100344.81;;;28.62;58.48
75938;BME280;64615;32.062;34.834;2023-08-21T09:13:12;100345.81;;;28.67;58.07
75938;BME280;64615;32.062;34.834;2023-08-21T09:15:44;100344.50;;;28.64;58.58
75938;BME280;64615;32.062;34.834;2023-08-21T09:18:12;100341.28;;;28.62;58.52
75938;BME280;64615;32.062;34.834;2023-08-21T09:20:39;100339.13;;;28.59;58.54
75938;BME280;64615;32.062;34.834;2023-08-21T09:23:05;100332.84;;;28.58;58.73
75938;BME280;64615;32.062;34.834;2023-08-21T09:25:40;100329.63;;;28.56;58.84
75938;BME280;64615;32.062;34.834;2023-08-21T09:28:07;100334.75;;;28.58;58.67
75938;BME280;64615;32.062;34.834;2023-08-21T09:30:52;100331.25;;;28.57;58.54
75938;BME280;64615;32.062;34.834;2023-08-21T09:33:20;100328.16;;;28.59;58.46
75938;BME280;64615;32.062;34.834;2023-08-21T09:35:46;100330.91;;;28.59;58.34
75938;BME280;64615;32.062;34.834;2023-08-21T09:38:12;100314.47;;;28.59;58.35
75938;BME280;64615;32.062;34.834;2023-08-21T09:40:40;100324.94;;;28.57;58.78
75938;BME280;64615;32.062;34.834;2023-08-21T09:43:08;100331.25;;;28.57;58.74
75938;BME280;64615;32.062;34.834;2023-08-21T09:45:35;100321.69;;;28.55;58.74
75938;BME280;64615;32.062;34.834;2023-08-21T09:48:01;100330.44;;;28.57;58.56
75938;BME280;64615;32.062;34.834;2023-08-21T09:50:29;100326.34;;;28.54;58.76
75938;BME280;64615;32.062;34.834;2023-08-21T09:52:56;100331.03;;;28.54;58.66
75938;BME280;64615;32.062;34.834;2023-08-21T09:55:22;100331.34;;;28.52;58.76
75938;BME280;64615;32.062;34.834;2023-08-21T09:57:48;100330.22;;;28.53;58.99
75938;BME280;64615;32.062;34.834;2023-08-21T10:00:22;100328.91;;;28.51;58.92
75938;BME280;64615;32.062;34.834;2023-08-21T10:02:51;100328.41;;;28.49;58.73
75938;BME280;64615;32.062;34.834;2023-08-21T10:05:17;100316.84;;;28.52;58.54
75938;BME280;64615;32.062;34.834;2023-08-21T10:07:48;100332.66;;;28.55;58.79
75938;BME280;64615;32.062;34.834;2023-08-21T10:10:15;100327.81;;;28.52;58.73
75938;BME280;64615;32.062;34.834;2023-08-21T10:12:40;100327.81;;;28.52;58.54
75938;BME280;64615;32.062;34.834;2023-08-21T10:15:07;100320.41;;;28.52;58.59
75938;BME280;64615;32.062;34.834;2023-08-21T10:17:34;100318.78;;;28.51;58.63
75938;BME280;64615;32.062;34.834;2023-08-21T10:20:05;100315.72;;;28.53;58.60
75938;BME280;64615;32.062;34.834;2023-08-21T10:22:48;100317.97;;;28.51;58.48
75938;BME280;64615;32.062;34.834;2023-08-21T10:25:18;100313.59;;;28.50;58.91
75938;BME280;64615;32.062;34.834;2023-08-21T10:28:00;100310.03;;;28.49;58.71
75938;BME280;64615;32.062;34.834;2023-08-21T10:30:29;100304.88;;;28.48;59.17
75938;BME280;64615;32.062;34.834;2023-08-21T10:32:57;100303.28;;;28.47;59.01
75938;BME280;64615;32.062;34.834;2023-08-21T10:35:31;100303.28;;;28.47;58.63
75938;BME280;64615;32.062;34.834;2023-08-21T10:38:16;100311.16;;;28.48;58.65
75938;BME280;64615;32.062;34.834;2023-08-21T10:41:05;100309.22;;;28.49;58.44
75938;BME280;64615;32.062;34.834;2023-08-21T10:43:39;100309.75;;;28.51;58.44
75938;BME280;64615;32.062;34.834;2023-08-21T10:46:06;100308.13;;;28.50;57.99
75938;BME280;64615;32.062;34.834;2023-08-21T10:48:31;100307.50;;;28.53;57.88
75938;BME280;64615;32.062;34.834;2023-08-21T10:51:01;100303.97;;;28.52;58.32
75938;BME280;64615;32.062;34.834;2023-08-21T10:53:27;100307.59;;;28.48;58.58
75938;BME280;64615;32.062;34.834;2023-08-21T10:55:54;100310.97;;;28.45;58.62
75938;BME280;64615;32.062;34.834;2023-08-21T10:58:20;100304.38;;;28.46;58.57
75938;BME280;64615;32.062;34.834;2023-08-21T11:00:46;100302.25;;;28.43;58.64
75938;BME280;64615;32.062;34.834;2023-08-21T11:03:11;100301.44;;;28.42;58.82
75938;BME280;64615;32.062;34.834;2023-08-21T11:05:37;100294.34;;;28.41;58.92
75938;BME280;64615;32.062;34.834;2023-08-21T11:08:03;100298.38;;;28.44;58.66
75938;BME280;64615;32.062;34.834;2023-08-21T11:10:30;100293.72;;;28.44;58.70
75938;BME280;64615;32.062;34.834;2023-08-21T11:12:58;100288.56;;;28.43;58.69
75938;BME280;64615;32.062;34.834;2023-08-21T11:15:29;100295.16;;;28.42;58.98
75938;BME280;64615;32.062;34.834;2023-08-21T11:18:02;100283.41;;;28.41;58.82
75938;BME280;64615;32.062;34.834;2023-08-21T11:20:32;100282.88;;;28.39;58.59
75938;BME280;64615;32.062;34.834;2023-08-21T11:23:03;100279.63;;;28.37;58.81
75938;BME280;64615;32.062;34.834;2023-08-21T11:25:32;100279.63;;;28.37;58.83
75938;BME280;64615;32.062;34.834;2023-08-21T11:27:59;100291.91;;;28.40;58.69
75938;BME280;64615;32.062;34.834;2023-08-21T11:30:26;100274.38;;;28.41;58.93
75938;BME280;64615;32.062;34.834;2023-08-21T11:33:08;100274.97;;;28.38;58.95
75938;BME280;64615;32.062;34.834;2023-08-21T11:35:34;100273.03;;;28.38;58.92
75938;BME280;64615;32.062;34.834;2023-08-21T11:38:00;100273.88;;;28.39;58.58
75938;BME280;64615;32.062;34.834;2023-08-21T11:40:25;100273.38;;;28.37;58.73
75938;BME280;64615;32.062;34.834;2023-08-21T11:42:52;100271.75;;;28.36;58.90
75938;BME280;64615;32.062;34.834;2023-08-21T11:45:20;100277.22;;;28.36;58.95
75938;BME280;64615;32.062;34.834;2023-08-21T11:47:47;100265.75;;;28.34;58.75
75938;BME280;64615;32.062;34.834;2023-08-21T11:50:14;100259.47;;;28.33;58.94
75938;BME280;64615;32.062;34.834;2023-08-21T11:52:43;100256.75;;;28.33;58.81
75938;BME280;64615;32.062;34.834;2023-08-21T11:55:09;100257.84;;;28.32;59.23
75938;BME280;64615;32.062;34.834;2023-08-21T11:58:05;100253.53;;;28.31;58.84
75938;BME280;64615;32.062;34.834;2023-08-21T12:00:30;100262.50;;;28.32;58.97
75938;BME280;64615;32.062;34.834;2023-08-21T12:02:57;100257.03;;;28.32;59.19
75938;BME280;64615;32.062;34.834;2023-08-21T12:05:23;100261.72;;;28.31;59.05
75938;BME280;64615;32.062;34.834;2023-08-21T12:07:49;100253.81;;;28.30;59.15
75938;BME280;64615;32.062;34.834;2023-08-21T12:10:22;100246.09;;;28.32;59.00
75938;BME280;64615;32.062;34.834;2023-08-21T12:12:48;100245.31;;;28.31;58.97
75938;BME280;64615;32.062;34.834;2023-08-21T12:15:14;100249.97;;;28.31;58.90
75938;BME280;64615;32.062;34.834;2023-08-21T12:17:39;100260.91;;;28.31;59.15
75938;BME280;64615;32.062;34.834;2023-08-21T12:20:05;100262.03;;;28.30;59.14
75938;BME280;64615;32.062;34.834;2023-08-21T12:22:39;100257.66;;;28.29;59.07
75938;BME280;64615;32.062;34.834;2023-08-21T12:25:05;100253.31;;;28.28;59.32
75938;BME280;64615;32.062;34.834;2023-08-21T12:27:31;100257.97;;;28.27;59.08
75938;BME280;64615;32.062;34.834;2023-08-21T12:29:57;100249.75;;;28.27;59.26
75938;BME280;64615;32.062;34.834;2023-08-21T12:32:22;100258.28;;;28.26;59.14
75938;BME280;64615;32.062;34.834;2023-08-21T12:34:48;100256.03;;;28.28;58.88
75938;BME280;64615;32.062;34.834;2023-08-21T12:37:14;100256.03;;;28.28;59.05
75938;BME280;64615;32.062;34.834;2023-08-21T12:39:39;100247.53;;;28.29;59.21
75938;BME280;64615;32.062;34.834;2023-08-21T12:42:05;100251.88;;;28.30;58.99